Airfield :
LOGIN :

Register | Disclaimer

   EN    FR    IT 

 










Legend :    VFR   Marginal VFR   IFR   Intensive IFR   Very Intensive IFR
Visi :
Ceiling :
>= 8 km
>= 3000ft
5 to 8 km
1000 to 3000 ft
1500m to 5 km
500 to 1000 ft
800 to 1500m
200 to 500 ft
< 800m
< 200 ft
Symbols :   Thunderstorms  Fog  Heavy snow  Heavy precipitations  Wind > 20 kt
SIGMETs :     Misc.  Thunderstorms  Icing  Turbulence  Mountain Waves  Volcanic Ashes






- Airport Elevation : 1768 ft


LEHC - Huesca Pirineos

CURRENT METAR :
  • 040130Z AUTO 24010KT CAVOK 14/10 Q1015

EXPIRED METARs :
  • 040100Z AUTO 24009KT CAVOK 15/10 Q1016
  • 040030Z AUTO 24008KT CAVOK 15/10 Q1016
  • 040000Z AUTO 26010KT 230V290 CAVOK 16/10 Q1015
  • 032330Z AUTO 27016KT CAVOK 18/09 Q1015
  • 032300Z AUTO 27014KT CAVOK 18/09 Q1015

TAF TAF LEHC
Valid from the 03 at 15:00 until the 04 at 15:00 UTC


031400Z 0315/0415 28015KT 9999 FEW020 TX30/0414Z TN15/0405Z
TEMPO 0315/0320 27020G32KT
BECMG 0322/0324 VRB05KT



MET'MAP, your aeronautical weather chart ! - Copyright ORBIFLY December 2007 - Disclaimer

ORBIFLY MET'MAP TEAM :

Programming & Development : Alexandra Zaïnal
Concept & original design : Baudouin d'Aumeries
Assistance for programming : Marc-Olivier Méhu
Technical & hardware support : Manuel Goepfert

Contact : metmap@orbifly.com




SOURCES & CREDITS :

   NOAA